Terminal Aerodrome Forecast
Issued by NWS

Home | Current Version | Previous Version | Text Only | Print | Product List | Glossary On
Versions: 1 2 3 4 5 6 7 8 9 10 11 12
000
FTUS45 KABQ 010530
TAFGUP
TAF
KGUP 010530Z 0106/0206 VRB06KT P6SM SCT110 SCT200
     FM011000 VRB05KT P6SM SKC
     FM011800 26008KT P6SM FEW100
     FM012200 28009KT P6SM VCTS SCT100CB BKN150
     FM020100 VRB05KT P6SM SCT100 BKN150=

USA.gov is the U.S. government's official web portal to all federal, state and local government web resources and services.